createdAt,value
2023-04-17T00:01:43.197Z,99608.16
2023-04-17T00:04:11.633Z,99605.69
2023-04-17T00:06:39.423Z,99600.56
2023-04-17T00:09:06.462Z,99607.59
2023-04-17T00:11:33.256Z,99609.50
2023-04-17T00:14:00.103Z,99609.50
2023-04-17T00:16:27.610Z,99614.84
2023-04-17T00:18:55.074Z,99611.28
2023-04-17T00:21:22.210Z,99610.94
2023-04-17T00:23:49.019Z,99614.16
2023-04-17T00:26:16.665Z,99606.19
2023-04-17T00:28:43.734Z,99604.75
2023-04-17T00:31:10.991Z,99611.06
2023-04-17T00:33:38.102Z,99603.41
2023-04-17T00:36:05.645Z,99605.06
2023-04-17T00:38:32.584Z,99612.50
2023-04-17T00:40:59.625Z,99599.13
2023-04-17T00:43:26.585Z,99605.66
2023-04-17T00:45:54.453Z,99604.38
2023-04-17T00:48:24.380Z,99600.56
2023-04-17T00:50:51.516Z,99600.09
2023-04-17T00:53:18.405Z,99596.50
2023-04-17T00:55:45.880Z,99598.91
2023-04-17T00:58:12.727Z,99602.72
2023-04-17T01:00:39.558Z,99600.47
2023-04-17T01:03:06.561Z,99604.84
2023-04-17T01:05:35.732Z,99597.69
2023-04-17T01:08:02.596Z,99595.53
2023-04-17T01:10:32.187Z,99602.47
2023-04-17T01:13:07.017Z,99593.88
2023-04-17T01:15:34.457Z,99593.28
2023-04-17T01:18:01.512Z,99593.28
2023-04-17T01:20:31.503Z,99597.69
2023-04-17T01:22:58.874Z,99598.53
2023-04-17T01:25:26.703Z,99595.56
2023-04-17T01:27:53.703Z,99586.88
2023-04-17T01:30:21.136Z,99589.34
2023-04-17T01:32:48.036Z,99592.72
2023-04-17T01:35:15.038Z,99592.94
2023-04-17T01:37:41.798Z,99592.22
2023-04-17T01:40:10.043Z,99598.44
2023-04-17T01:42:36.942Z,99597.94
2023-04-17T01:45:04.205Z,99603.41
2023-04-17T01:47:31.025Z,99600.78
2023-04-17T01:49:57.800Z,99595.34
2023-04-17T01:52:24.628Z,99599.72
2023-04-17T01:54:51.490Z,99597.94
2023-04-17T01:57:18.247Z,99602.59
2023-04-17T01:59:45.255Z,99603.41
2023-04-17T02:02:12.245Z,99606.03
2023-04-17T02:04:39.194Z,99609.63
2023-04-17T02:07:06.224Z,99603.19
2023-04-17T02:09:33.109Z,99607.59
2023-04-17T02:12:00.293Z,99597.09
2023-04-17T02:14:27.026Z,99599.38
2023-04-17T02:16:54.085Z,99593.53
2023-04-17T02:19:21.708Z,99594.75
2023-04-17T02:21:48.662Z,99597.47
2023-04-17T02:24:15.646Z,99594.16
2023-04-17T02:26:42.415Z,99599.84
2023-04-17T02:29:09.427Z,99602.72
2023-04-17T02:31:36.848Z,99597.22
2023-04-17T02:34:03.628Z,99597.81
2023-04-17T02:36:30.337Z,99596.03
2023-04-17T02:38:57.371Z,99599.59
2023-04-17T02:41:24.289Z,99597.81
2023-04-17T02:43:51.018Z,99601.28
2023-04-17T02:46:17.706Z,99608.53
2023-04-17T02:48:44.453Z,99596.75
2023-04-17T02:51:11.203Z,99599.03
2023-04-17T02:53:37.923Z,99598.31
2023-04-17T02:56:05.359Z,99589.84
2023-04-17T02:58:32.153Z,99601.28
2023-04-17T03:01:03.366Z,99602.94
2023-04-17T03:03:35.605Z,99608.66
2023-04-17T03:06:02.829Z,99605.06
2023-04-17T03:08:33.035Z,99604.59
2023-04-17T03:10:59.899Z,99597.59
2023-04-17T03:13:26.679Z,99596.41
2023-04-17T03:15:53.430Z,99604.75
2023-04-17T03:18:20.242Z,99604.84
2023-04-17T03:20:46.977Z,99606.78
2023-04-17T03:23:13.706Z,99610.47
2023-04-17T03:25:40.727Z,99604.16
2023-04-17T03:28:07.516Z,99605.66
2023-04-17T03:30:34.299Z,99613.31
2023-04-17T03:33:01.320Z,99621.28
2023-04-17T03:35:28.152Z,99614.16
2023-04-17T03:37:54.996Z,99617.47
2023-04-17T03:40:21.723Z,99618.41
2023-04-17T03:42:48.824Z,99624.13
2023-04-17T03:45:17.169Z,99621.38
2023-04-17T03:47:43.956Z,99611.69
2023-04-17T03:50:11.113Z,99634.13
2023-04-17T03:52:37.857Z,99622.91
2023-04-17T03:55:05.324Z,99630.06
2023-04-17T03:57:32.556Z,99622.91
2023-04-17T03:59:59.671Z,99629.97
2023-04-17T04:02:26.917Z,99630.88
2023-04-17T04:04:54.180Z,99627.44
2023-04-17T04:07:21.764Z,99632.91
2023-04-17T04:09:48.506Z,99629.66
2023-04-17T04:12:15.324Z,99640.28
2023-04-17T04:14:42.978Z,99636.59
2023-04-17T04:17:09.802Z,99633.97
2023-04-17T04:19:36.705Z,99644.97
2023-04-17T04:22:06.724Z,99639.22
2023-04-17T04:24:34.474Z,99639.91
2023-04-17T04:27:05.645Z,99639.16
2023-04-17T04:29:33.463Z,99644.13
2023-04-17T04:32:01.460Z,99643.34
2023-04-17T04:34:30.178Z,99644.53
2023-04-17T04:36:57.493Z,99651.22
2023-04-17T04:39:24.541Z,99648.94
2023-04-17T04:41:52.658Z,99646.34
2023-04-17T04:44:20.375Z,99648.47
2023-04-17T04:46:47.447Z,99647.63
2023-04-17T04:49:19.534Z,99648.34
2023-04-17T04:51:46.736Z,99650.09
2023-04-17T04:54:13.867Z,99650.09
2023-04-17T04:56:40.794Z,99655.47
2023-04-17T04:59:07.614Z,99660.97
2023-04-17T05:01:34.964Z,99663.69
2023-04-17T05:04:02.203Z,99658.81
2023-04-17T05:06:30.770Z,99668.19
2023-04-17T05:08:57.537Z,99667.84
2023-04-17T05:11:24.470Z,99669.66
2023-04-17T05:13:51.314Z,99675.94
2023-04-17T05:16:18.406Z,99678.00
2023-04-17T05:18:46.843Z,99657.75
2023-04-17T05:21:13.888Z,99676.72
2023-04-17T05:23:40.856Z,99682.72
2023-04-17T05:26:07.704Z,99686.00
2023-04-17T05:28:34.722Z,99678.22
2023-04-17T05:31:01.715Z,99682.19
2023-04-17T05:33:28.588Z,99678.41
2023-04-17T05:35:56.443Z,99682.94
2023-04-17T05:38:23.368Z,99679.00
2023-04-17T05:40:50.294Z,99686.25
2023-04-17T05:43:17.302Z,99682.66
2023-04-17T05:45:45.435Z,99675.06
2023-04-17T05:48:12.372Z,99680.31
2023-04-17T05:50:39.256Z,99686.50
2023-04-17T05:53:06.358Z,99680.31
2023-04-17T05:55:33.385Z,99685.88
2023-04-17T05:58:02.430Z,99685.47
2023-04-17T06:00:35.065Z,99686.75
2023-04-17T06:03:03.303Z,99684.13
2023-04-17T06:05:30.622Z,99687.34
2023-04-17T06:07:57.589Z,99687.22
2023-04-17T06:10:24.589Z,99693.19
2023-04-17T06:12:51.730Z,99693.31
2023-04-17T06:15:18.726Z,99693.88
2023-04-17T06:17:45.722Z,99699.63
2023-04-17T06:20:13.135Z,99694.09
2023-04-17T06:22:42.661Z,99705.06
2023-04-17T06:25:09.882Z,99695.56
2023-04-17T06:27:37.325Z,99701.19
2023-04-17T06:30:05.377Z,99695.75
2023-04-17T06:32:32.201Z,99686.59
2023-04-17T06:34:59.758Z,99703.22
2023-04-17T06:37:27.535Z,99701.31
2023-04-17T06:39:54.550Z,99708.09
2023-04-17T06:42:21.437Z,99701.91
2023-04-17T06:44:48.230Z,99714.22
2023-04-17T06:47:15.317Z,99713.59
2023-04-17T06:49:42.159Z,99714.34
2023-04-17T06:52:09.400Z,99711.47
2023-04-17T06:54:36.209Z,99712.44
2023-04-17T06:57:07.206Z,99727.38
2023-04-17T06:59:34.510Z,99728.06
2023-04-17T07:02:03.084Z,99726.19
2023-04-17T07:04:33.590Z,99728.06
2023-04-17T07:07:00.957Z,99731.25
2023-04-17T07:09:27.939Z,99733.56
2023-04-17T07:11:54.773Z,99734.63
2023-04-17T07:14:23.285Z,99736.97
2023-04-17T07:16:50.234Z,99728.53
2023-04-17T07:19:17.006Z,99738.44
2023-04-17T07:21:44.149Z,99744.75
2023-04-17T07:24:11.060Z,99744.75
2023-04-17T07:26:38.086Z,99740.47
2023-04-17T07:29:05.081Z,99751.22
2023-04-17T07:31:32.434Z,99745.53
2023-04-17T07:33:59.623Z,99752.44
2023-04-17T07:36:29.139Z,99755.06
2023-04-17T07:38:56.260Z,99759.72
2023-04-17T07:41:23.107Z,99755.44
2023-04-17T07:43:49.859Z,99763.41
2023-04-17T07:46:16.874Z,99764.00
2023-04-17T07:48:43.811Z,99761.22
2023-04-17T07:51:10.759Z,99767.94
2023-04-17T07:53:38.926Z,99764.81
2023-04-17T07:56:07.680Z,99769.47
2023-04-17T07:58:36.172Z,99771.25
2023-04-17T08:01:06.160Z,99769.19
2023-04-17T08:03:33.637Z,99781.38
2023-04-17T08:06:00.563Z,99777.69
2023-04-17T08:08:27.388Z,99779.50
2023-04-17T08:10:54.158Z,99787.72
2023-04-17T08:13:21.290Z,99790.09
2023-04-17T08:15:52.024Z,99786.63
2023-04-17T08:18:19.498Z,99799.88
2023-04-17T08:20:46.879Z,99791.63
2023-04-17T08:23:13.781Z,99803.69
2023-04-17T08:25:41.130Z,99794.34
2023-04-17T08:28:08.260Z,99792.81
2023-04-17T08:30:35.079Z,99797.81
2023-04-17T08:33:02.553Z,99807.00
2023-04-17T08:35:29.411Z,99799.81
2023-04-17T08:37:59.400Z,99802.16
2023-04-17T08:40:26.867Z,99802.47
2023-04-17T08:42:54.766Z,99815.50
2023-04-17T08:45:24.416Z,99815.00
2023-04-17T08:47:51.456Z,99809.66
2023-04-17T08:50:20.193Z,99813.56
2023-04-17T08:52:48.691Z,99803.75
2023-04-17T08:55:20.188Z,99811.22
2023-04-17T08:58:04.475Z,99810.00
2023-04-17T09:00:36.670Z,99806.50
2023-04-17T09:03:05.883Z,99802.16
2023-04-17T09:05:37.354Z,99799.75
2023-04-17T09:08:21.906Z,99798.75
2023-04-17T09:10:50.895Z,99800.88
2023-04-17T09:13:22.228Z,99797.41
2023-04-17T09:16:10.760Z,99802.41
2023-04-17T09:18:39.034Z,99811.41
2023-04-17T09:21:07.317Z,99807.81
2023-04-17T09:23:55.691Z,99811.75
2023-04-17T09:26:27.936Z,99810.53
2023-04-17T09:29:02.077Z,99817.50
2023-04-17T09:31:30.938Z,99822.59
2023-04-17T09:33:58.992Z,99821.31
2023-04-17T09:36:27.771Z,99820.50
2023-04-17T09:38:54.817Z,99823.63
2023-04-17T09:41:33.253Z,99828.09
2023-04-17T09:44:02.396Z,99829.13
2023-04-17T09:46:38.728Z,99822.53
2023-04-17T09:49:31.032Z,99824.03
2023-04-17T09:51:58.580Z,99822.41
2023-04-17T09:54:26.014Z,99811.31
2023-04-17T09:56:56.358Z,99813.69
2023-04-17T09:59:26.730Z,99805.41
2023-04-17T10:01:54.548Z,99805.81
2023-04-17T10:04:21.956Z,99808.34
2023-04-17T10:06:49.818Z,99806.13
2023-04-17T10:09:16.878Z,99809.22
2023-04-17T10:11:45.374Z,99800.97
2023-04-17T10:14:17.484Z,99811.72
2023-04-17T10:16:44.431Z,99808.00
2023-04-17T10:19:34.928Z,99803.09
2023-04-17T10:22:41.789Z,99811.19
2023-04-17T10:25:19.468Z,99813.25
2023-04-17T10:27:48.739Z,99818.78
2023-04-17T10:30:16.219Z,99809.34
2023-04-17T10:32:47.069Z,99805.78
2023-04-17T10:35:37.372Z,99806.47
2023-04-17T10:38:06.332Z,99799.94
2023-04-17T10:40:35.610Z,99803.16
2023-04-17T10:43:14.059Z,99794.41
2023-04-17T10:46:09.463Z,99799.53
2023-04-17T10:48:38.449Z,99801.31
2023-04-17T10:51:44.214Z,99803.28
2023-04-17T10:54:11.443Z,99803.16
2023-04-17T10:56:49.037Z,99806.91
2023-04-17T10:59:17.721Z,99792.97
2023-04-17T11:02:05.256Z,99801.31
2023-04-17T11:04:34.737Z,99798.84
2023-04-17T11:07:02.329Z,99791.63
2023-04-17T11:09:29.818Z,99802.44
2023-04-17T11:12:00.312Z,99798.56
2023-04-17T11:14:27.261Z,99791.88
2023-04-17T11:16:54.637Z,99798.81
2023-04-17T11:19:23.893Z,99797.47
2023-04-17T11:21:55.244Z,99796.88
2023-04-17T11:24:30.085Z,99793.16
2023-04-17T11:27:00.218Z,99789.94
2023-04-17T11:29:28.647Z,99782.03
2023-04-17T11:31:57.800Z,99779.25
2023-04-17T11:34:29.437Z,99791.91
2023-04-17T11:36:58.353Z,99797.16
2023-04-17T11:39:30.307Z,99789.13
2023-04-17T11:41:57.467Z,99786.06
2023-04-17T11:44:27.298Z,99792.56
2023-04-17T11:46:56.038Z,99782.97
2023-04-17T11:49:33.992Z,99790.88
2023-04-17T11:52:02.479Z,99788.81
2023-04-17T11:54:31.282Z,99797.97
2023-04-17T11:57:02.757Z,99794.91
2023-04-17T11:59:33.969Z,99797.16
2023-04-17T12:02:02.607Z,99795.72
2023-04-17T12:04:31.350Z,99791.22
2023-04-17T12:07:00.164Z,99786.97
2023-04-17T12:09:31.926Z,99791.69
2023-04-17T12:11:59.993Z,99786.81
2023-04-17T12:14:26.977Z,99795.41
2023-04-17T12:16:54.228Z,99788.44
2023-04-17T12:19:21.159Z,99796.81
2023-04-17T12:21:48.208Z,99774.28
2023-04-17T12:24:16.020Z,99782.34
2023-04-17T12:26:49.994Z,99782.88
2023-04-17T12:29:17.829Z,99779.72
2023-04-17T12:31:46.060Z,99788.16
2023-04-17T12:34:15.403Z,99782.75
2023-04-17T12:36:42.846Z,99772.09
2023-04-17T12:39:09.871Z,99791.72
2023-04-17T12:41:36.656Z,99786.75
2023-04-17T12:44:03.945Z,99784.00
2023-04-17T12:46:31.743Z,99785.69
2023-04-17T12:48:59.940Z,99784.03
2023-04-17T12:51:31.188Z,99782.88
2023-04-17T12:53:59.069Z,99776.34
2023-04-17T12:56:26.323Z,99771.50
2023-04-17T12:58:53.314Z,99772.97
2023-04-17T13:01:20.321Z,99766.31
2023-04-17T13:03:48.240Z,99765.19
2023-04-17T13:06:17.214Z,99776.34
2023-04-17T13:08:44.108Z,99767.19
2023-04-17T13:11:11.947Z,99758.56
2023-04-17T13:13:38.742Z,99758.66
2023-04-17T13:16:06.341Z,99762.75
2023-04-17T13:18:33.386Z,99760.88
2023-04-17T13:21:01.194Z,99761.59
2023-04-17T13:23:28.178Z,99754.31
2023-04-17T13:25:55.201Z,99762.47
2023-04-17T13:28:22.774Z,99752.09
2023-04-17T13:30:49.641Z,99753.13
2023-04-17T13:33:17.205Z,99742.78
2023-04-17T13:35:44.126Z,99752.09
2023-04-17T13:38:11.058Z,99746.44
2023-04-17T13:40:38.818Z,99759.72
2023-04-17T13:43:10.598Z,99754.59
2023-04-17T13:45:38.321Z,99754.44
2023-04-17T13:48:05.558Z,99751.97
2023-04-17T13:50:32.439Z,99744.53
2023-04-17T13:52:59.220Z,99736.50
2023-04-17T13:55:26.136Z,99737.16
2023-04-17T13:57:54.474Z,99730.56
2023-04-17T14:00:22.551Z,99740.66
2023-04-17T14:02:49.719Z,99730.75
2023-04-17T14:05:16.991Z,99737.31
2023-04-17T14:07:44.410Z,99734.91
2023-04-17T14:10:11.725Z,99731.50
2023-04-17T14:12:38.660Z,99737.97
2023-04-17T14:15:07.680Z,99738.97
2023-04-17T14:17:38.272Z,99737.59
2023-04-17T14:20:06.091Z,99730.97
2023-04-17T14:22:32.943Z,99733.97
2023-04-17T14:24:59.737Z,99739.16
2023-04-17T14:27:26.481Z,99740.94
2023-04-17T14:29:53.209Z,99728.78
2023-04-17T14:32:20.007Z,99731.88
2023-04-17T14:34:47.177Z,99734.00
2023-04-17T14:37:14.729Z,99719.97
2023-04-17T14:39:41.744Z,99722.81
2023-04-17T14:42:08.892Z,99728.94
2023-04-17T14:44:35.878Z,99719.25
2023-04-17T14:47:03.179Z,99726.94
2023-04-17T14:49:30.658Z,99723.78
2023-04-17T14:51:57.524Z,99723.28
2023-04-17T14:54:24.304Z,99727.50
2023-04-17T14:56:51.176Z,99724.09
2023-04-17T14:59:18.277Z,99722.00
2023-04-17T15:01:45.450Z,99716.75
2023-04-17T15:04:12.516Z,99723.13
2023-04-17T15:06:39.588Z,99721.75
2023-04-17T15:09:07.337Z,99717.94
2023-04-17T15:11:37.402Z,99722.66
2023-04-17T15:14:04.575Z,99721.94
2023-04-17T15:16:31.532Z,99720.81
2023-04-17T15:18:58.457Z,99717.38
2023-04-17T15:21:25.268Z,99722.13
2023-04-17T15:23:52.167Z,99719.69
2023-04-17T15:26:19.341Z,99721.84
2023-04-17T15:28:46.333Z,99720.63
2023-04-17T15:31:13.567Z,99720.31
2023-04-17T15:33:40.322Z,99727.16
2023-04-17T15:36:07.192Z,99722.53
2023-04-17T15:38:34.100Z,99718.97
2023-04-17T15:41:01.137Z,99718.13
2023-04-17T15:43:28.183Z,99718.13
2023-04-17T15:45:55.072Z,99721.59
2023-04-17T15:48:22.130Z,99719.91
2023-04-17T15:50:48.903Z,99718.66
2023-04-17T15:53:15.901Z,99718.72
2023-04-17T15:55:42.923Z,99723.22
2023-04-17T15:58:09.921Z,99718.50
2023-04-17T16:00:37.498Z,99720.75
2023-04-17T16:03:08.013Z,99718.53
2023-04-17T16:05:35.118Z,99719.78
2023-04-17T16:08:01.959Z,99719.13
2023-04-17T16:10:28.824Z,99722.47
2023-04-17T16:12:56.003Z,99721.47
2023-04-17T16:15:23.302Z,99716.91
2023-04-17T16:17:50.917Z,99720.56
2023-04-17T16:20:20.551Z,99716.25
2023-04-17T16:22:47.525Z,99726.53
2023-04-17T16:25:14.939Z,99717.50
2023-04-17T16:27:41.882Z,99718.09
2023-04-17T16:30:10.559Z,99726.94
2023-04-17T16:32:37.705Z,99717.22
2023-04-17T16:35:05.030Z,99716.28
2023-04-17T16:37:31.790Z,99713.03
2023-04-17T16:40:04.666Z,99710.81
2023-04-17T16:42:32.618Z,99723.34
2023-04-17T16:44:59.613Z,99706.53
2023-04-17T16:47:30.240Z,99724.44
2023-04-17T16:49:57.207Z,99719.03
2023-04-17T16:52:24.019Z,99720.88
2023-04-17T16:54:50.938Z,99722.22
2023-04-17T16:57:17.691Z,99727.38
2023-04-17T16:59:44.788Z,99727.59
2023-04-17T17:02:11.899Z,99723.28
2023-04-17T17:04:38.757Z,99731.84
2023-04-17T17:07:06.628Z,99726.22
2023-04-17T17:09:33.658Z,99739.34
2023-04-17T17:12:00.863Z,99737.53
2023-04-17T17:14:27.806Z,99730.56
2023-04-17T17:16:54.956Z,99740.13
2023-04-17T17:19:22.020Z,99746.38
2023-04-17T17:21:50.174Z,99739.84
2023-04-17T17:24:16.957Z,99739.63
2023-04-17T17:26:43.953Z,99740.56
2023-04-17T17:29:10.834Z,99732.44
2023-04-17T17:31:37.764Z,99737.13
2023-04-17T17:34:16.799Z,99737.81
2023-04-17T17:36:51.388Z,99736.38
2023-04-17T17:39:18.139Z,99738.19
2023-04-17T17:41:47.204Z,99744.81
2023-04-17T17:44:14.956Z,99739.97
2023-04-17T17:46:42.084Z,99729.72
2023-04-17T17:49:08.815Z,99740.97
2023-04-17T17:51:35.864Z,99738.00
2023-04-17T17:54:03.138Z,99741.94
2023-04-17T17:56:30.157Z,99737.59
2023-04-17T17:58:57.210Z,99739.94
2023-04-17T18:01:25.241Z,99731.94
2023-04-17T18:03:53.570Z,99742.19
2023-04-17T18:06:21.002Z,99733.44
2023-04-17T18:08:48.202Z,99735.25
2023-04-17T18:11:15.333Z,99740.75
2023-04-17T18:13:41.987Z,99739.09
2023-04-17T18:16:08.777Z,99742.66
2023-04-17T18:18:35.674Z,99739.25
2023-04-17T18:21:09.823Z,99733.81
2023-04-17T18:23:36.779Z,99741.50
2023-04-17T18:26:04.523Z,99742.03
2023-04-17T18:28:31.342Z,99743.63
2023-04-17T18:30:58.277Z,99755.22
2023-04-17T18:33:25.157Z,99746.41
2023-04-17T18:35:52.176Z,99751.56
2023-04-17T18:38:19.154Z,99752.00
2023-04-17T18:40:46.017Z,99748.66
2023-04-17T18:43:12.871Z,99760.94
2023-04-17T18:45:39.850Z,99757.28
2023-04-17T18:48:06.808Z,99762.66
2023-04-17T18:50:33.647Z,99763.22
2023-04-17T18:53:00.653Z,99768.00
2023-04-17T18:55:27.873Z,99765.19
2023-04-17T18:57:54.568Z,99767.72
2023-04-17T19:00:21.380Z,99763.78
2023-04-17T19:02:48.350Z,99770.09
2023-04-17T19:05:15.477Z,99766.84
2023-04-17T19:07:42.210Z,99771.88
2023-04-17T19:10:09.542Z,99767.41
2023-04-17T19:12:36.613Z,99767.78
2023-04-17T19:15:04.241Z,99767.94
2023-04-17T19:17:31.134Z,99766.41
2023-04-17T19:19:57.930Z,99772.25
2023-04-17T19:22:24.755Z,99773.22
2023-04-17T19:24:53.159Z,99767.72
2023-04-17T19:27:20.113Z,99771.38
2023-04-17T19:29:47.620Z,99777.69
2023-04-17T19:32:16.814Z,99771.69
2023-04-17T19:34:44.404Z,99777.66
2023-04-17T19:37:11.189Z,99778.47
2023-04-17T19:39:37.885Z,99777.06
2023-04-17T19:42:05.048Z,99790.41
2023-04-17T19:44:31.872Z,99784.25
2023-04-17T19:46:58.888Z,99784.16
2023-04-17T19:49:26.073Z,99785.34
2023-04-17T19:51:52.831Z,99792.91
2023-04-17T19:54:19.768Z,99786.63
2023-04-17T19:56:46.451Z,99787.78
2023-04-17T19:59:13.765Z,99776.84
2023-04-17T20:01:43.433Z,99783.53
2023-04-17T20:04:11.144Z,99792.31
2023-04-17T20:06:38.101Z,99788.16
2023-04-17T20:09:06.507Z,99794.25
2023-04-17T20:11:33.285Z,99786.63
2023-04-17T20:14:00.271Z,99777.81
2023-04-17T20:16:27.444Z,99788.53
2023-04-17T20:18:56.811Z,99781.03
2023-04-17T20:21:24.076Z,99788.09
2023-04-17T20:23:51.065Z,99795.34
2023-04-17T20:26:17.901Z,99788.47
2023-04-17T20:28:44.651Z,99794.88
2023-04-17T20:31:11.445Z,99799.75
2023-04-17T20:33:38.215Z,99796.75
2023-04-17T20:36:06.000Z,99808.56
2023-04-17T20:38:32.703Z,99798.50
2023-04-17T20:40:59.442Z,99798.19
2023-04-17T20:43:26.224Z,99807.72
2023-04-17T20:45:56.276Z,99799.75
2023-04-17T20:48:23.800Z,99794.00
2023-04-17T20:50:50.744Z,99797.63
2023-04-17T20:53:18.046Z,99803.66
2023-04-17T20:55:47.200Z,99797.16
2023-04-17T20:58:13.900Z,99798.81
2023-04-17T21:00:47.585Z,99798.56
2023-04-17T21:03:21.137Z,99798.34
2023-04-17T21:05:48.104Z,99801.81
2023-04-17T21:08:14.837Z,99798.75
2023-04-17T21:10:41.547Z,99791.56
2023-04-17T21:13:08.333Z,99796.34
2023-04-17T21:15:35.022Z,99798.59
2023-04-17T21:18:01.713Z,99806.06
2023-04-17T21:20:28.533Z,99795.19
2023-04-17T21:22:55.275Z,99808.94
2023-04-17T21:25:22.318Z,99800.66
2023-04-17T21:27:49.374Z,99813.81
2023-04-17T21:30:16.211Z,99805.91
2023-04-17T21:32:43.049Z,99811.75
2023-04-17T21:35:10.395Z,99809.50
2023-04-17T21:37:37.354Z,99795.44
2023-04-17T21:40:04.516Z,99811.75
2023-04-17T21:42:31.329Z,99811.91
2023-04-17T21:44:58.174Z,99808.06
2023-04-17T21:47:24.991Z,99807.97
2023-04-17T21:49:51.763Z,99815.66
2023-04-17T21:52:18.586Z,99816.53
2023-04-17T21:54:45.270Z,99817.75
2023-04-17T21:57:12.026Z,99813.03
2023-04-17T21:59:39.059Z,99817.31
2023-04-17T22:02:06.052Z,99821.31
2023-04-17T22:04:32.905Z,99817.75
2023-04-17T22:06:59.591Z,99813.78
2023-04-17T22:09:28.882Z,99819.78
2023-04-17T22:11:55.934Z,99808.75
2023-04-17T22:14:22.661Z,99815.94
2023-04-17T22:16:49.525Z,99808.59
2023-04-17T22:19:16.272Z,99804.91
2023-04-17T22:21:43.245Z,99814.03
2023-04-17T22:24:10.019Z,99816.53
2023-04-17T22:26:36.979Z,99809.34
2023-04-17T22:29:04.007Z,99812.75
2023-04-17T22:31:30.911Z,99815.47
2023-04-17T22:33:57.936Z,99821.88
2023-04-17T22:36:24.679Z,99819.81
2023-04-17T22:38:51.412Z,99820.31
2023-04-17T22:41:18.123Z,99829.13
2023-04-17T22:43:48.663Z,99825.56
2023-04-17T22:46:16.541Z,99830.75
2023-04-17T22:48:45.377Z,99821.50
2023-04-17T22:51:13.220Z,99817.56
2023-04-17T22:53:40.050Z,99831.09
2023-04-17T22:56:06.990Z,99827.28
2023-04-17T22:58:34.339Z,99828.75
2023-04-17T23:01:01.086Z,99823.78
2023-04-17T23:03:28.173Z,99825.31
2023-04-17T23:05:55.033Z,99829.72
2023-04-17T23:08:22.243Z,99834.81
2023-04-17T23:10:57.031Z,99833.88
2023-04-17T23:13:23.926Z,99828.47
2023-04-17T23:15:51.322Z,99843.13
2023-04-17T23:18:18.222Z,99842.13
2023-04-17T23:20:45.004Z,99841.94
2023-04-17T23:23:11.763Z,99838.25
2023-04-17T23:25:38.602Z,99837.03
2023-04-17T23:28:05.419Z,99848.78
2023-04-17T23:30:32.194Z,99833.31
2023-04-17T23:32:58.895Z,99826.56
2023-04-17T23:35:25.707Z,99842.31
2023-04-17T23:37:52.389Z,99839.50
2023-04-17T23:40:19.065Z,99834.94
2023-04-17T23:42:46.181Z,99831.78
2023-04-17T23:45:12.940Z,99835.25
2023-04-17T23:47:39.709Z,99837.31
2023-04-17T23:50:07.785Z,99830.38
2023-04-17T23:52:34.477Z,99834.47
2023-04-17T23:55:01.951Z,99840.16
2023-04-17T23:57:29.756Z,99838.16
2023-04-17T23:59:56.448Z,99829.16
